sensor_id;sensor_type;location;lat;lon;timestamp;P1;durP1;ratioP1;P2;durP2;ratioP2
36449;SDS011;22475;51.390;7.180;2023-03-01T01:24:27;4.60;;;3.60;;
36449;SDS011;22475;51.390;7.180;2023-03-01T01:26:53;7.78;;;4.22;;
36449;SDS011;22475;51.390;7.180;2023-03-01T01:29:20;8.00;;;3.22;;
36449;SDS011;22475;51.390;7.180;2023-03-01T01:31:47;4.82;;;3.78;;
36449;SDS011;22475;51.390;7.180;2023-03-01T01:34:15;6.10;;;3.80;;
36449;SDS011;22475;51.390;7.180;2023-03-01T01:36:43;4.40;;;3.35;;
36449;SDS011;22475;51.390;7.180;2023-03-01T01:39:10;5.05;;;3.97;;
36449;SDS011;22475;51.390;7.180;2023-03-01T01:41:39;5.97;;;4.20;;
36449;SDS011;22475;51.390;7.180;2023-03-01T01:44:09;12.70;;;4.22;;
36449;SDS011;22475;51.390;7.180;2023-03-01T01:46:42;5.30;;;3.95;;
36449;SDS011;22475;51.390;7.180;2023-03-01T01:49:15;4.47;;;4.07;;
36449;SDS011;22475;51.390;7.180;2023-03-01T01:51:47;10.27;;;3.78;;
36449;SDS011;22475;51.390;7.180;2023-03-01T01:54:18;3.95;;;3.08;;
36449;SDS011;22475;51.390;7.180;2023-03-01T01:56:49;4.60;;;3.80;;
36449;SDS011;22475;51.390;7.180;2023-03-01T01:59:21;4.07;;;3.63;;
36449;SDS011;22475;51.390;7.180;2023-03-01T02:01:50;6.13;;;3.72;;
36449;SDS011;22475;51.390;7.180;2023-03-01T02:04:17;6.53;;;3.25;;
36449;SDS011;22475;51.390;7.180;2023-03-01T02:06:45;5.82;;;4.63;;
36449;SDS011;22475;51.390;7.180;2023-03-01T02:09:16;6.30;;;3.92;;
36449;SDS011;22475;51.390;7.180;2023-03-01T02:11:46;5.28;;;4.22;;
36449;SDS011;22475;51.390;7.180;2023-03-01T02:14:16;9.10;;;3.72;;
36449;SDS011;22475;51.390;7.180;2023-03-01T02:16:43;3.30;;;3.00;;
36449;SDS011;22475;51.390;7.180;2023-03-01T02:19:12;6.95;;;4.65;;
36449;SDS011;22475;51.390;7.180;2023-03-01T02:21:46;5.60;;;4.07;;
36449;SDS011;22475;51.390;7.180;2023-03-01T02:24:21;4.18;;;3.50;;
36449;SDS011;22475;51.390;7.180;2023-03-01T02:26:57;6.05;;;4.18;;
36449;SDS011;22475;51.390;7.180;2023-03-01T02:29:27;5.28;;;3.53;;
36449;SDS011;22475;51.390;7.180;2023-03-01T02:31:55;7.32;;;3.63;;
36449;SDS011;22475;51.390;7.180;2023-03-01T02:34:24;4.57;;;3.85;;
36449;SDS011;22475;51.390;7.180;2023-03-01T02:36:53;5.53;;;3.90;;
36449;SDS011;22475;51.390;7.180;2023-03-01T02:39:23;6.30;;;3.70;;
36449;SDS011;22475;51.390;7.180;2023-03-01T02:41:54;5.97;;;3.58;;
36449;SDS011;22475;51.390;7.180;2023-03-01T02:44:22;5.80;;;4.13;;
36449;SDS011;22475;51.390;7.180;2023-03-01T02:46:53;7.88;;;4.32;;
36449;SDS011;22475;51.390;7.180;2023-03-01T02:49:24;5.45;;;3.17;;
36449;SDS011;22475;51.390;7.180;2023-03-01T02:52:00;5.43;;;3.83;;
36449;SDS011;22475;51.390;7.180;2023-03-01T02:54:34;5.65;;;3.95;;
36449;SDS011;22475;51.390;7.180;2023-03-01T02:57:05;5.30;;;4.18;;
36449;SDS011;22475;51.390;7.180;2023-03-01T02:59:33;5.30;;;3.42;;
36449;SDS011;22475;51.390;7.180;2023-03-01T03:02:05;4.78;;;4.15;;
36449;SDS011;22475;51.390;7.180;2023-03-01T03:04:32;9.65;;;3.28;;
36449;SDS011;22475;51.390;7.180;2023-03-01T03:06:59;4.57;;;3.65;;
36449;SDS011;22475;51.390;7.180;2023-03-01T03:09:26;4.88;;;3.75;;
36449;SDS011;22475;51.390;7.180;2023-03-01T03:11:53;5.35;;;4.03;;
36449;SDS011;22475;51.390;7.180;2023-03-01T03:14:20;9.10;;;4.18;;
36449;SDS011;22475;51.390;7.180;2023-03-01T03:16:47;6.65;;;3.95;;
36449;SDS011;22475;51.390;7.180;2023-03-01T03:19:16;8.00;;;3.85;;
36449;SDS011;22475;51.390;7.180;2023-03-01T03:21:44;4.25;;;3.70;;
36449;SDS011;22475;51.390;7.180;2023-03-01T03:24:11;7.15;;;4.60;;
36449;SDS011;22475;51.390;7.180;2023-03-01T03:26:38;4.85;;;4.45;;
36449;SDS011;22475;51.390;7.180;2023-03-01T03:29:04;7.78;;;3.50;;
36449;SDS011;22475;51.390;7.180;2023-03-01T03:31:31;7.30;;;4.45;;
36449;SDS011;22475;51.390;7.180;2023-03-01T03:33:58;4.60;;;3.90;;
36449;SDS011;22475;51.390;7.180;2023-03-01T03:36:26;4.97;;;3.47;;
36449;SDS011;22475;51.390;7.180;2023-03-01T03:38:53;5.25;;;4.47;;
36449;SDS011;22475;51.390;7.180;2023-03-01T03:41:20;5.13;;;3.88;;
36449;SDS011;22475;51.390;7.180;2023-03-01T03:43:46;5.45;;;3.85;;
36449;SDS011;22475;51.390;7.180;2023-03-01T03:46:13;5.70;;;3.55;;
36449;SDS011;22475;51.390;7.180;2023-03-01T03:48:42;4.53;;;3.72;;
36449;SDS011;22475;51.390;7.180;2023-03-01T03:51:10;6.55;;;3.45;;
36449;SDS011;22475;51.390;7.180;2023-03-01T03:53:39;7.00;;;3.92;;
36449;SDS011;22475;51.390;7.180;2023-03-01T03:56:07;7.88;;;4.47;;
36449;SDS011;22475;51.390;7.180;2023-03-01T03:58:34;5.45;;;4.35;;
36449;SDS011;22475;51.390;7.180;2023-03-01T04:01:01;6.40;;;3.70;;
36449;SDS011;22475;51.390;7.180;2023-03-01T04:03:29;7.30;;;3.78;;
36449;SDS011;22475;51.390;7.180;2023-03-01T04:05:57;6.82;;;4.05;;
36449;SDS011;22475;51.390;7.180;2023-03-01T04:08:24;6.88;;;3.92;;
36449;SDS011;22475;51.390;7.180;2023-03-01T04:10:59;4.40;;;3.83;;
36449;SDS011;22475;51.390;7.180;2023-03-01T04:13:48;7.28;;;4.15;;
36449;SDS011;22475;51.390;7.180;2023-03-01T04:16:15;5.88;;;4.63;;
36449;SDS011;22475;51.390;7.180;2023-03-01T04:18:43;6.30;;;3.78;;
36449;SDS011;22475;51.390;7.180;2023-03-01T04:21:10;4.22;;;3.83;;
36449;SDS011;22475;51.390;7.180;2023-03-01T04:23:37;5.22;;;4.10;;
36449;SDS011;22475;51.390;7.180;2023-03-01T04:26:07;11.65;;;4.07;;
36449;SDS011;22475;51.390;7.180;2023-03-01T04:28:34;5.03;;;4.18;;
36449;SDS011;22475;51.390;7.180;2023-03-01T04:31:06;4.20;;;3.80;;
36449;SDS011;22475;51.390;7.180;2023-03-01T04:33:38;5.90;;;3.85;;
36449;SDS011;22475;51.390;7.180;2023-03-01T04:36:07;8.13;;;4.05;;
36449;SDS011;22475;51.390;7.180;2023-03-01T04:38:34;7.25;;;4.28;;
36449;SDS011;22475;51.390;7.180;2023-03-01T04:41:02;11.43;;;3.55;;
36449;SDS011;22475;51.390;7.180;2023-03-01T04:43:30;8.40;;;4.97;;
36449;SDS011;22475;51.390;7.180;2023-03-01T04:45:59;5.65;;;4.25;;
36449;SDS011;22475;51.390;7.180;2023-03-01T04:50:54;8.52;;;4.55;;
36449;SDS011;22475;51.390;7.180;2023-03-01T04:53:21;9.25;;;4.60;;
36449;SDS011;22475;51.390;7.180;2023-03-01T04:55:48;6.22;;;4.10;;
36449;SDS011;22475;51.390;7.180;2023-03-01T04:58:14;5.90;;;3.88;;
36449;SDS011;22475;51.390;7.180;2023-03-01T05:00:42;8.63;;;4.85;;
36449;SDS011;22475;51.390;7.180;2023-03-01T05:03:09;6.18;;;4.03;;
36449;SDS011;22475;51.390;7.180;2023-03-01T05:05:37;8.02;;;4.72;;
36449;SDS011;22475;51.390;7.180;2023-03-01T05:08:05;7.50;;;3.60;;
36449;SDS011;22475;51.390;7.180;2023-03-01T05:10:34;5.47;;;4.07;;
36449;SDS011;22475;51.390;7.180;2023-03-01T05:13:03;5.72;;;4.78;;
36449;SDS011;22475;51.390;7.180;2023-03-01T05:15:31;7.10;;;4.10;;
36449;SDS011;22475;51.390;7.180;2023-03-01T05:18:00;8.05;;;4.85;;
36449;SDS011;22475;51.390;7.180;2023-03-01T05:20:27;9.20;;;4.50;;
36449;SDS011;22475;51.390;7.180;2023-03-01T05:22:55;6.25;;;4.10;;
36449;SDS011;22475;51.390;7.180;2023-03-01T05:25:23;5.88;;;4.57;;
36449;SDS011;22475;51.390;7.180;2023-03-01T05:27:50;8.93;;;4.10;;
36449;SDS011;22475;51.390;7.180;2023-03-01T05:30:17;7.10;;;4.80;;
36449;SDS011;22475;51.390;7.180;2023-03-01T05:32:45;5.07;;;4.57;;
36449;SDS011;22475;51.390;7.180;2023-03-01T05:35:15;7.72;;;4.82;;
36449;SDS011;22475;51.390;7.180;2023-03-01T05:37:44;6.18;;;5.50;;
36449;SDS011;22475;51.390;7.180;2023-03-01T05:40:13;4.53;;;4.13;;
36449;SDS011;22475;51.390;7.180;2023-03-01T05:42:43;5.90;;;4.43;;
36449;SDS011;22475;51.390;7.180;2023-03-01T05:45:11;7.65;;;4.93;;
36449;SDS011;22475;51.390;7.180;2023-03-01T05:47:38;4.05;;;3.25;;
36449;SDS011;22475;51.390;7.180;2023-03-01T05:50:08;4.97;;;3.70;;
36449;SDS011;22475;51.390;7.180;2023-03-01T05:52:45;6.72;;;4.85;;
36449;SDS011;22475;51.390;7.180;2023-03-01T05:55:13;4.47;;;4.18;;
36449;SDS011;22475;51.390;7.180;2023-03-01T05:57:40;5.93;;;4.03;;
36449;SDS011;22475;51.390;7.180;2023-03-01T06:00:07;6.38;;;4.32;;
36449;SDS011;22475;51.390;7.180;2023-03-01T06:02:35;6.03;;;4.82;;
36449;SDS011;22475;51.390;7.180;2023-03-01T06:05:03;6.13;;;5.13;;
36449;SDS011;22475;51.390;7.180;2023-03-01T06:07:30;11.18;;;5.63;;
36449;SDS011;22475;51.390;7.180;2023-03-01T06:09:58;8.50;;;4.90;;
36449;SDS011;22475;51.390;7.180;2023-03-01T06:12:25;5.75;;;4.55;;
36449;SDS011;22475;51.390;7.180;2023-03-01T06:14:52;8.02;;;4.88;;
36449;SDS011;22475;51.390;7.180;2023-03-01T06:17:19;11.68;;;5.70;;
36449;SDS011;22475;51.390;7.180;2023-03-01T06:19:46;13.98;;;5.70;;
36449;SDS011;22475;51.390;7.180;2023-03-01T06:22:13;20.27;;;11.15;;
36449;SDS011;22475;51.390;7.180;2023-03-01T06:24:39;6.82;;;6.13;;
36449;SDS011;22475;51.390;7.180;2023-03-01T06:27:07;11.18;;;5.22;;
36449;SDS011;22475;51.390;7.180;2023-03-01T06:29:34;6.43;;;5.50;;
36449;SDS011;22475;51.390;7.180;2023-03-01T06:32:02;5.55;;;4.55;;
36449;SDS011;22475;51.390;7.180;2023-03-01T06:34:28;8.85;;;6.03;;
36449;SDS011;22475;51.390;7.180;2023-03-01T06:36:55;11.70;;;5.50;;
36449;SDS011;22475;51.390;7.180;2023-03-01T06:39:22;6.95;;;5.15;;
36449;SDS011;22475;51.390;7.180;2023-03-01T06:41:49;10.80;;;5.60;;
36449;SDS011;22475;51.390;7.180;2023-03-01T06:44:17;6.53;;;5.13;;
36449;SDS011;22475;51.390;7.180;2023-03-01T06:46:44;13.85;;;5.63;;
36449;SDS011;22475;51.390;7.180;2023-03-01T06:49:10;10.63;;;5.45;;
36449;SDS011;22475;51.390;7.180;2023-03-01T06:51:37;10.43;;;5.07;;
36449;SDS011;22475;51.390;7.180;2023-03-01T06:54:04;9.93;;;5.10;;
36449;SDS011;22475;51.390;7.180;2023-03-01T06:56:31;10.82;;;5.50;;
36449;SDS011;22475;51.390;7.180;2023-03-01T06:58:58;6.07;;;4.85;;
36449;SDS011;22475;51.390;7.180;2023-03-01T07:01:26;9.52;;;5.43;;
36449;SDS011;22475;51.390;7.180;2023-03-01T07:03:53;11.05;;;5.00;;
36449;SDS011;22475;51.390;7.180;2023-03-01T07:06:20;8.27;;;5.10;;
36449;SDS011;22475;51.390;7.180;2023-03-01T07:08:47;9.98;;;5.88;;
36449;SDS011;22475;51.390;7.180;2023-03-01T07:11:14;7.20;;;4.93;;
36449;SDS011;22475;51.390;7.180;2023-03-01T07:13:41;6.65;;;4.85;;
36449;SDS011;22475;51.390;7.180;2023-03-01T07:16:08;8.23;;;6.45;;
36449;SDS011;22475;51.390;7.180;2023-03-01T07:18:36;9.90;;;5.80;;
36449;SDS011;22475;51.390;7.180;2023-03-01T07:21:04;7.07;;;5.18;;
36449;SDS011;22475;51.390;7.180;2023-03-01T07:23:31;5.95;;;4.88;;
36449;SDS011;22475;51.390;7.180;2023-03-01T07:25:58;8.05;;;5.18;;
36449;SDS011;22475;51.390;7.180;2023-03-01T07:28:25;16.15;;;5.72;;
36449;SDS011;22475;51.390;7.180;2023-03-01T07:30:53;12.90;;;6.65;;
36449;SDS011;22475;51.390;7.180;2023-03-01T07:33:20;10.95;;;6.03;;
36449;SDS011;22475;51.390;7.180;2023-03-01T07:35:48;8.55;;;5.40;;
36449;SDS011;22475;51.390;7.180;2023-03-01T07:38:21;9.13;;;5.75;;
36449;SDS011;22475;51.390;7.180;2023-03-01T07:40:48;12.00;;;6.88;;
36449;SDS011;22475;51.390;7.180;2023-03-01T07:43:15;9.45;;;5.45;;
36449;SDS011;22475;51.390;7.180;2023-03-01T07:45:41;15.02;;;6.40;;
36449;SDS011;22475;51.390;7.180;2023-03-01T07:48:08;7.45;;;6.25;;
36449;SDS011;22475;51.390;7.180;2023-03-01T07:50:35;7.93;;;5.85;;
36449;SDS011;22475;51.390;7.180;2023-03-01T07:53:03;8.55;;;6.55;;
36449;SDS011;22475;51.390;7.180;2023-03-01T07:55:30;7.88;;;5.63;;
36449;SDS011;22475;51.390;7.180;2023-03-01T07:57:57;12.40;;;7.18;;
36449;SDS011;22475;51.390;7.180;2023-03-01T08:00:23;8.25;;;5.88;;
36449;SDS011;22475;51.390;7.180;2023-03-01T08:02:50;9.13;;;5.85;;
36449;SDS011;22475;51.390;7.180;2023-03-01T08:05:17;9.50;;;6.32;;
36449;SDS011;22475;51.390;7.180;2023-03-01T08:07:44;6.90;;;5.50;;
36449;SDS011;22475;51.390;7.180;2023-03-01T08:10:12;15.20;;;6.50;;
36449;SDS011;22475;51.390;7.180;2023-03-01T08:12:39;8.38;;;5.88;;
36449;SDS011;22475;51.390;7.180;2023-03-01T08:15:06;16.42;;;6.78;;
36449;SDS011;22475;51.390;7.180;2023-03-01T08:17:34;10.43;;;6.50;;
36449;SDS011;22475;51.390;7.180;2023-03-01T08:20:00;12.13;;;6.65;;
36449;SDS011;22475;51.390;7.180;2023-03-01T08:22:28;8.90;;;5.97;;
36449;SDS011;22475;51.390;7.180;2023-03-01T08:24:55;11.75;;;5.68;;
36449;SDS011;22475;51.390;7.180;2023-03-01T08:27:23;12.85;;;5.93;;
36449;SDS011;22475;51.390;7.180;2023-03-01T08:29:50;15.10;;;8.38;;
36449;SDS011;22475;51.390;7.180;2023-03-01T08:32:17;9.60;;;6.78;;
36449;SDS011;22475;51.390;7.180;2023-03-01T08:34:45;11.88;;;6.90;;
36449;SDS011;22475;51.390;7.180;2023-03-01T08:37:12;13.30;;;6.55;;
36449;SDS011;22475;51.390;7.180;2023-03-01T08:39:39;13.40;;;6.55;;
36449;SDS011;22475;51.390;7.180;2023-03-01T08:42:06;9.48;;;6.53;;
36449;SDS011;22475;51.390;7.180;2023-03-01T08:44:34;12.73;;;6.60;;
36449;SDS011;22475;51.390;7.180;2023-03-01T08:47:01;10.15;;;6.18;;
36449;SDS011;22475;51.390;7.180;2023-03-01T08:49:29;9.50;;;6.88;;
36449;SDS011;22475;51.390;7.180;2023-03-01T08:51:57;11.93;;;7.18;;
36449;SDS011;22475;51.390;7.180;2023-03-01T08:54:24;13.00;;;7.35;;
36449;SDS011;22475;51.390;7.180;2023-03-01T08:56:51;13.68;;;6.10;;
36449;SDS011;22475;51.390;7.180;2023-03-01T08:59:18;9.48;;;6.88;;
36449;SDS011;22475;51.390;7.180;2023-03-01T09:01:46;12.40;;;6.20;;
36449;SDS011;22475;51.390;7.180;2023-03-01T09:04:14;12.40;;;7.25;;
36449;SDS011;22475;51.390;7.180;2023-03-01T09:06:41;9.93;;;4.97;;
36449;SDS011;22475;51.390;7.180;2023-03-01T09:09:11;10.23;;;6.47;;
36449;SDS011;22475;51.390;7.180;2023-03-01T09:11:40;13.25;;;6.68;;
36449;SDS011;22475;51.390;7.180;2023-03-01T09:14:08;7.40;;;5.05;;
36449;SDS011;22475;51.390;7.180;2023-03-01T09:16:35;9.10;;;5.90;;
36449;SDS011;22475;51.390;7.180;2023-03-01T09:19:03;12.32;;;5.32;;
36449;SDS011;22475;51.390;7.180;2023-03-01T09:21:30;10.45;;;6.40;;
36449;SDS011;22475;51.390;7.180;2023-03-01T09:23:57;9.88;;;5.88;;
36449;SDS011;22475;51.390;7.180;2023-03-01T09:26:24;9.30;;;6.15;;
36449;SDS011;22475;51.390;7.180;2023-03-01T09:28:51;13.00;;;5.93;;
36449;SDS011;22475;51.390;7.180;2023-03-01T09:31:20;9.05;;;4.93;;
36449;SDS011;22475;51.390;7.180;2023-03-01T09:33:48;11.50;;;5.47;;
36449;SDS011;22475;51.390;7.180;2023-03-01T09:36:19;10.95;;;5.43;;
36449;SDS011;22475;51.390;7.180;2023-03-01T09:38:47;10.27;;;5.53;;
36449;SDS011;22475;51.390;7.180;2023-03-01T09:41:19;15.52;;;6.05;;
36449;SDS011;22475;51.390;7.180;2023-03-01T09:44:05;10.40;;;5.55;;
36449;SDS011;22475;51.390;7.180;2023-03-01T09:46:40;11.30;;;6.03;;
36449;SDS011;22475;51.390;7.180;2023-03-01T09:49:10;8.17;;;5.10;;
36449;SDS011;22475;51.390;7.180;2023-03-01T09:51:45;6.45;;;4.70;;
36449;SDS011;22475;51.390;7.180;2023-03-01T09:54:19;6.45;;;4.85;;
36449;SDS011;22475;51.390;7.180;2023-03-01T09:56:49;6.07;;;4.28;;
36449;SDS011;22475;51.390;7.180;2023-03-01T09:59:26;9.15;;;4.35;;
36449;SDS011;22475;51.390;7.180;2023-03-01T10:02:00;5.28;;;3.75;;
36449;SDS011;22475;51.390;7.180;2023-03-01T10:04:40;8.23;;;4.30;;
36449;SDS011;22475;51.390;7.180;2023-03-01T10:07:16;8.07;;;4.53;;
36449;SDS011;22475;51.390;7.180;2023-03-01T10:09:51;4.28;;;3.85;;
36449;SDS011;22475;51.390;7.180;2023-03-01T10:12:19;4.80;;;3.67;;
36449;SDS011;22475;51.390;7.180;2023-03-01T10:14:51;7.00;;;4.93;;
36449;SDS011;22475;51.390;7.180;2023-03-01T10:17:27;6.28;;;3.55;;
36449;SDS011;22475;51.390;7.180;2023-03-01T10:20:08;7.15;;;4.25;;
36449;SDS011;22475;51.390;7.180;2023-03-01T10:22:43;10.73;;;4.22;;
36449;SDS011;22475;51.390;7.180;2023-03-01T10:25:14;6.32;;;3.90;;
36449;SDS011;22475;51.390;7.180;2023-03-01T10:27:43;7.78;;;4.10;;
36449;SDS011;22475;51.390;7.180;2023-03-01T10:30:18;6.63;;;4.25;;
36449;SDS011;22475;51.390;7.180;2023-03-01T10:32:47;8.95;;;4.80;;
36449;SDS011;22475;51.390;7.180;2023-03-01T10:35:17;6.73;;;4.30;;
36449;SDS011;22475;51.390;7.180;2023-03-01T10:37:57;5.20;;;4.00;;
36449;SDS011;22475;51.390;7.180;2023-03-01T10:40:28;5.18;;;3.55;;
36449;SDS011;22475;51.390;7.180;2023-03-01T10:42:57;6.35;;;3.83;;
36449;SDS011;22475;51.390;7.180;2023-03-01T10:45:35;5.53;;;3.60;;
36449;SDS011;22475;51.390;7.180;2023-03-01T10:48:05;8.30;;;3.65;;
36449;SDS011;22475;51.390;7.180;2023-03-01T10:50:37;6.25;;;3.60;;
36449;SDS011;22475;51.390;7.180;2023-03-01T10:53:16;3.80;;;2.70;;
36449;SDS011;22475;51.390;7.180;2023-03-01T10:55:48;5.55;;;3.38;;
36449;SDS011;22475;51.390;7.180;2023-03-01T10:58:24;5.63;;;3.42;;
36449;SDS011;22475;51.390;7.180;2023-03-01T11:00:51;3.72;;;3.42;;
36449;SDS011;22475;51.390;7.180;2023-03-01T11:03:21;4.60;;;3.17;;
36449;SDS011;22475;51.390;7.180;2023-03-01T11:05:51;7.13;;;3.03;;
36449;SDS011;22475;51.390;7.180;2023-03-01T11:08:35;6.78;;;3.65;;
36449;SDS011;22475;51.390;7.180;2023-03-01T11:11:11;5.97;;;3.92;;
36449;SDS011;22475;51.390;7.180;2023-03-01T11:13:50;5.32;;;3.53;;
36449;SDS011;22475;51.390;7.180;2023-03-01T11:19:15;5.55;;;2.92;;
36449;SDS011;22475;51.390;7.180;2023-03-01T11:21:47;3.75;;;2.90;;
36449;SDS011;22475;51.390;7.180;2023-03-01T11:24:31;5.28;;;3.17;;
36449;SDS011;22475;51.390;7.180;2023-03-01T11:27:14;5.25;;;2.42;;
36449;SDS011;22475;51.390;7.180;2023-03-01T11:29:45;5.25;;;3.22;;
36449;SDS011;22475;51.390;7.180;2023-03-01T11:32:16;4.15;;;3.58;;
36449;SDS011;22475;51.390;7.180;2023-03-01T11:34:45;6.20;;;4.45;;
36449;SDS011;22475;51.390;7.180;2023-03-01T11:37:20;6.78;;;3.47;;
36449;SDS011;22475;51.390;7.180;2023-03-01T11:39:55;5.32;;;3.88;;
36449;SDS011;22475;51.390;7.180;2023-03-01T11:42:30;6.22;;;3.65;;
36449;SDS011;22475;51.390;7.180;2023-03-01T11:45:09;9.73;;;4.38;;
36449;SDS011;22475;51.390;7.180;2023-03-01T11:47:50;6.30;;;3.75;;
36449;SDS011;22475;51.390;7.180;2023-03-01T11:50:28;4.70;;;3.33;;
36449;SDS011;22475;51.390;7.180;2023-03-01T11:53:02;6.20;;;4.38;;
36449;SDS011;22475;51.390;7.180;2023-03-01T11:55:50;6.70;;;3.90;;
36449;SDS011;22475;51.390;7.180;2023-03-01T11:58:39;5.15;;;3.72;;
36449;SDS011;22475;51.390;7.180;2023-03-01T12:01:22;3.00;;;2.58;;
36449;SDS011;22475;51.390;7.180;2023-03-01T12:04:10;5.07;;;3.03;;
36449;SDS011;22475;51.390;7.180;2023-03-01T12:06:52;5.65;;;2.92;;
36449;SDS011;22475;51.390;7.180;2023-03-01T12:09:31;6.15;;;3.45;;
36449;SDS011;22475;51.390;7.180;2023-03-01T12:12:15;3.65;;;3.13;;
36449;SDS011;22475;51.390;7.180;2023-03-01T12:15:20;3.33;;;2.58;;
36449;SDS011;22475;51.390;7.180;2023-03-01T12:18:06;5.88;;;3.72;;
36449;SDS011;22475;51.390;7.180;2023-03-01T12:20:48;5.13;;;3.25;;
36449;SDS011;22475;51.390;7.180;2023-03-01T12:23:38;5.72;;;3.60;;
36449;SDS011;22475;51.390;7.180;2023-03-01T12:26:20;4.20;;;3.42;;
36449;SDS011;22475;51.390;7.180;2023-03-01T12:35:02;5.45;;;3.33;;
36449;SDS011;22475;51.390;7.180;2023-03-01T12:37:40;5.50;;;3.25;;
36449;SDS011;22475;51.390;7.180;2023-03-01T12:43:08;4.28;;;3.53;;
36449;SDS011;22475;51.390;7.180;2023-03-01T12:48:43;5.95;;;2.92;;
36449;SDS011;22475;51.390;7.180;2023-03-01T12:51:18;4.97;;;3.90;;
36449;SDS011;22475;51.390;7.180;2023-03-01T12:53:49;12.45;;;3.95;;
36449;SDS011;22475;51.390;7.180;2023-03-01T12:56:19;3.75;;;3.17;;
36449;SDS011;22475;51.390;7.180;2023-03-01T12:58:51;5.13;;;3.70;;
36449;SDS011;22475;51.390;7.180;2023-03-01T13:01:29;7.18;;;3.38;;
36449;SDS011;22475;51.390;7.180;2023-03-01T13:04:03;4.97;;;3.38;;
36449;SDS011;22475;51.390;7.180;2023-03-01T13:06:42;5.72;;;3.65;;
36449;SDS011;22475;51.390;7.180;2023-03-01T13:09:22;2.83;;;2.35;;
36449;SDS011;22475;51.390;7.180;2023-03-01T13:11:55;4.43;;;2.72;;
36449;SDS011;22475;51.390;7.180;2023-03-01T13:14:35;7.63;;;2.78;;
36449;SDS011;22475;51.390;7.180;2023-03-01T13:17:07;5.88;;;3.22;;
36449;SDS011;22475;51.390;7.180;2023-03-01T13:19:58;9.05;;;4.22;;
36449;SDS011;22475;51.390;7.180;2023-03-01T13:22:26;5.22;;;3.40;;
36449;SDS011;22475;51.390;7.180;2023-03-01T13:27:45;3.50;;;3.17;;
36449;SDS011;22475;51.390;7.180;2023-03-01T13:33:37;4.35;;;3.42;;
36449;SDS011;22475;51.390;7.180;2023-03-01T13:36:07;4.93;;;3.40;;
36449;SDS011;22475;51.390;7.180;2023-03-01T13:38:37;7.95;;;4.18;;
36449;SDS011;22475;51.390;7.180;2023-03-01T13:41:14;3.80;;;3.17;;
36449;SDS011;22475;51.390;7.180;2023-03-01T13:43:42;3.40;;;2.80;;
36449;SDS011;22475;51.390;7.180;2023-03-01T13:46:15;7.53;;;3.65;;
36449;SDS011;22475;51.390;7.180;2023-03-01T13:48:45;5.55;;;3.50;;
36449;SDS011;22475;51.390;7.180;2023-03-01T13:51:15;5.05;;;2.58;;
36449;SDS011;22475;51.390;7.180;2023-03-01T13:53:46;3.33;;;3.03;;
36449;SDS011;22475;51.390;7.180;2023-03-01T13:56:14;2.28;;;2.05;;
36449;SDS011;22475;51.390;7.180;2023-03-01T13:58:44;4.10;;;2.55;;
36449;SDS011;22475;51.390;7.180;2023-03-01T14:03:49;4.10;;;2.05;;
36449;SDS011;22475;51.390;7.180;2023-03-01T14:06:16;4.68;;;3.25;;
36449;SDS011;22475;51.390;7.180;2023-03-01T14:08:46;5.13;;;2.80;;
36449;SDS011;22475;51.390;7.180;2023-03-01T14:14:18;3.95;;;3.35;;
36449;SDS011;22475;51.390;7.180;2023-03-01T14:16:59;5.97;;;3.47;;
36449;SDS011;22475;51.390;7.180;2023-03-01T14:19:37;4.32;;;2.85;;
36449;SDS011;22475;51.390;7.180;2023-03-01T14:22:11;4.53;;;3.58;;
36449;SDS011;22475;51.390;7.180;2023-03-01T14:24:44;5.13;;;3.60;;
36449;SDS011;22475;51.390;7.180;2023-03-01T14:27:14;3.70;;;3.05;;
36449;SDS011;22475;51.390;7.180;2023-03-01T14:29:42;3.92;;;2.58;;
36449;SDS011;22475;51.390;7.180;2023-03-01T14:32:15;3.25;;;2.42;;
36449;SDS011;22475;51.390;7.180;2023-03-01T14:34:47;4.65;;;3.08;;
36449;SDS011;22475;51.390;7.180;2023-03-01T14:37:19;3.97;;;2.55;;
36449;SDS011;22475;51.390;7.180;2023-03-01T14:39:47;5.65;;;3.10;;
36449;SDS011;22475;51.390;7.180;2023-03-01T14:42:15;6.43;;;2.92;;
36449;SDS011;22475;51.390;7.180;2023-03-01T14:44:43;4.72;;;2.88;;
36449;SDS011;22475;51.390;7.180;2023-03-01T14:47:11;12.70;;;2.72;;
36449;SDS011;22475;51.390;7.180;2023-03-01T14:49:40;3.80;;;3.42;;
36449;SDS011;22475;51.390;7.180;2023-03-01T14:52:17;12.10;;;2.88;;
36449;SDS011;22475;51.390;7.180;2023-03-01T14:54:47;3.92;;;2.35;;
36449;SDS011;22475;51.390;7.180;2023-03-01T14:57:16;3.30;;;2.47;;
36449;SDS011;22475;51.390;7.180;2023-03-01T15:02:14;3.33;;;2.28;;
36449;SDS011;22475;51.390;7.180;2023-03-01T15:04:45;3.35;;;2.33;;
36449;SDS011;22475;51.390;7.180;2023-03-01T15:07:15;4.45;;;2.00;;
36449;SDS011;22475;51.390;7.180;2023-03-01T15:09:43;1.83;;;1.60;;
36449;SDS011;22475;51.390;7.180;2023-03-01T15:15:20;3.97;;;1.88;;
36449;SDS011;22475;51.390;7.180;2023-03-01T15:17:58;4.03;;;2.28;;
36449;SDS011;22475;51.390;7.180;2023-03-01T15:20:27;2.92;;;2.08;;
36449;SDS011;22475;51.390;7.180;2023-03-01T15:23:01;2.92;;;2.10;;
36449;SDS011;22475;51.390;7.180;2023-03-01T15:25:29;4.97;;;3.35;;
36449;SDS011;22475;51.390;7.180;2023-03-01T15:27:58;2.28;;;2.00;;
36449;SDS011;22475;51.390;7.180;2023-03-01T15:30:27;3.25;;;1.92;;
36449;SDS011;22475;51.390;7.180;2023-03-01T15:33:19;4.65;;;2.70;;
36449;SDS011;22475;51.390;7.180;2023-03-01T15:35:54;6.75;;;3.10;;
36449;SDS011;22475;51.390;7.180;2023-03-01T15:38:34;5.35;;;3.17;;
36449;SDS011;22475;51.390;7.180;2023-03-01T15:41:04;1.90;;;1.77;;
36449;SDS011;22475;51.390;7.180;2023-03-01T15:43:47;2.85;;;1.88;;
36449;SDS011;22475;51.390;7.180;2023-03-01T15:46:19;7.63;;;2.92;;
36449;SDS011;22475;51.390;7.180;2023-03-01T15:48:50;3.08;;;2.28;;
36449;SDS011;22475;51.390;7.180;2023-03-01T15:51:21;2.20;;;2.00;;
36449;SDS011;22475;51.390;7.180;2023-03-01T15:53:54;5.45;;;3.08;;
36449;SDS011;22475;51.390;7.180;2023-03-01T15:56:23;3.20;;;2.97;;
36449;SDS011;22475;51.390;7.180;2023-03-01T15:58:49;10.15;;;3.58;;
36449;SDS011;22475;51.390;7.180;2023-03-01T16:01:16;4.03;;;1.73;;
36449;SDS011;22475;51.390;7.180;2023-03-01T16:03:44;3.38;;;3.05;;
36449;SDS011;22475;51.390;7.180;2023-03-01T16:06:11;5.00;;;2.67;;
36449;SDS011;22475;51.390;7.180;2023-03-01T16:08:38;4.30;;;2.30;;
36449;SDS011;22475;51.390;7.180;2023-03-01T16:11:10;2.63;;;2.22;;
36449;SDS011;22475;51.390;7.180;2023-03-01T16:13:47;4.18;;;1.95;;
36449;SDS011;22475;51.390;7.180;2023-03-01T16:16:15;6.00;;;3.08;;
36449;SDS011;22475;51.390;7.180;2023-03-01T16:18:43;4.65;;;2.63;;
36449;SDS011;22475;51.390;7.180;2023-03-01T16:21:12;4.43;;;3.00;;
36449;SDS011;22475;51.390;7.180;2023-03-01T16:23:44;4.90;;;3.20;;
36449;SDS011;22475;51.390;7.180;2023-03-01T16:26:13;6.88;;;2.30;;
36449;SDS011;22475;51.390;7.180;2023-03-01T16:28:40;4.65;;;3.15;;
36449;SDS011;22475;51.390;7.180;2023-03-01T16:31:07;6.65;;;3.65;;
36449;SDS011;22475;51.390;7.180;2023-03-01T16:33:34;5.65;;;3.35;;
36449;SDS011;22475;51.390;7.180;2023-03-01T16:36:01;4.88;;;2.95;;
36449;SDS011;22475;51.390;7.180;2023-03-01T16:38:33;3.35;;;2.08;;
36449;SDS011;22475;51.390;7.180;2023-03-01T16:41:00;3.25;;;2.78;;
36449;SDS011;22475;51.390;7.180;2023-03-01T16:43:28;3.28;;;2.97;;
36449;SDS011;22475;51.390;7.180;2023-03-01T16:45:56;3.90;;;2.85;;
36449;SDS011;22475;51.390;7.180;2023-03-01T16:48:23;6.25;;;2.42;;
36449;SDS011;22475;51.390;7.180;2023-03-01T16:50:57;5.32;;;2.85;;
36449;SDS011;22475;51.390;7.180;2023-03-01T16:53:25;2.60;;;2.40;;
36449;SDS011;22475;51.390;7.180;2023-03-01T16:55:55;2.55;;;1.92;;
36449;SDS011;22475;51.390;7.180;2023-03-01T16:58:21;3.22;;;2.42;;
36449;SDS011;22475;51.390;7.180;2023-03-01T17:00:51;4.05;;;2.67;;
36449;SDS011;22475;51.390;7.180;2023-03-01T17:03:18;4.95;;;3.25;;